Time;durP1;ratioP1;P1;durP2;ratioP2;P2;SDS_P1;SDS_P2;PMS_P1;PMS_P2;Temp;Humidity;BMP_temperature;BMP_pressure;BME280_temperature;BME280_humidity;BME280_pressure;Samples;Min_cycle;Max_cycle;Signal;HPM_P1;HPM_P2
2022/11/19 00:01:27;;;;;;;3.97;1.80;;;6.40;74.80;;;;;;5084839;27;46483;-69
2022/11/19 00:03:53;;;;;;;5.20;2.23;;;6.30;73.70;;;;;;5086087;27;46589;-67
2022/11/19 00:06:24;;;;;;;5.00;2.43;;;6.20;74.70;;;;;;5085043;27;46479;-67
2022/11/19 00:08:51;;;;;;;6.07;3.20;;;6.10;74.60;;;;;;5083770;27;46694;-67
2022/11/19 00:12:53;;;;;;;7.73;2.83;;;5.90;75.40;;;;;;5085812;27;46422;-69
2022/11/19 00:14:05;;;;;;;11.37;4.07;;;5.80;75.70;;;;;;5087870;27;46444;-67
2022/11/19 00:16:31;;;;;;;9.20;3.53;;;5.70;76.10;;;;;;5087296;27;46728;-70
2022/11/19 00:18:57;;;;;;;12.00;4.20;;;5.70;76.40;;;;;;5084789;27;46451;-67
2022/11/19 00:21:22;;;;;;;12.87;4.60;;;5.60;76.30;;;;;;5085709;27;46336;-68
2022/11/19 00:23:52;;;;;;;6.13;3.40;;;5.50;75.40;;;;;;5089093;27;46486;-67
2022/11/19 00:26:18;;;;;;;7.47;3.70;;;5.50;76.40;;;;;;5087678;27;45881;-67
2022/11/19 00:28:44;;;;;;;9.63;3.90;;;5.50;76.40;;;;;;5085305;27;46425;-67
2022/11/19 00:31:11;;;;;;;7.57;3.43;;;5.40;76.40;;;;;;5090232;27;46427;-67
2022/11/19 00:33:38;;;;;;;7.20;3.40;;;5.30;75.50;;;;;;5083158;27;46572;-68
2022/11/19 00:36:06;;;;;;;9.30;3.40;;;5.30;76.40;;;;;;5087347;27;46448;-67
2022/11/19 00:38:32;;;;;;;5.90;3.87;;;5.30;76.50;;;;;;5087361;27;46476;-69
2022/11/19 00:40:58;;;;;;;11.17;4.30;;;5.20;76.50;;;;;;5082545;27;46332;-69
2022/11/19 00:46:08;;;;;;;9.33;4.50;;;5.10;77.90;;;;;;5079995;27;46446;-69
2022/11/19 00:48:34;;;;;;;14.60;4.73;;;5.00;76.70;;;;;;5085825;27;46422;-70
2022/11/19 00:51:01;;;;;;;7.03;4.33;;;5.00;76.70;;;;;;5088913;27;46436;-68
2022/11/19 00:53:27;;;;;;;12.53;4.87;;;4.90;75.80;;;;;;5083751;27;46712;-70
2022/11/19 00:55:52;;;;;;;13.03;5.10;;;4.90;76.90;;;;;;5081977;27;46300;-69
2022/11/19 00:58:18;;;;;;;10.27;4.90;;;4.90;77.00;;;;;;5085644;27;48017;-69
2022/11/19 01:00:44;;;;;;;11.00;5.00;;;4.80;76.90;;;;;;5082392;27;46804;-69
2022/11/19 01:03:10;;;;;;;10.33;4.80;;;4.80;75.90;;;;;;5085816;27;46462;-70
2022/11/19 01:05:36;;;;;;;9.50;4.67;;;4.90;77.00;;;;;;5081240;27;46642;-69
2022/11/19 01:08:02;;;;;;;11.17;5.90;;;4.80;76.80;;;;;;5086058;27;47487;-69
2022/11/19 01:10:27;;;;;;;10.60;5.73;;;4.90;76.70;;;;;;5085757;27;46428;-71
2022/11/19 01:15:39;;;;;;;10.37;6.00;;;4.90;76.70;;;;;;5081608;27;46454;-69
2022/11/19 01:18:05;;;;;;;14.60;5.60;;;5.00;76.60;;;;;;5088007;27;47702;-70
2022/11/19 01:20:30;;;;;;;11.80;6.00;;;5.00;76.50;;;;;;5086844;27;46486;-70
2022/11/19 01:22:56;;;;;;;12.87;6.67;;;5.10;75.70;;;;;;5088705;27;47126;-68
2022/11/19 01:25:21;;;;;;;9.30;5.77;;;5.10;76.60;;;;;;5089459;27;45799;-69
2022/11/19 01:27:47;;;;;;;10.83;6.63;;;5.30;76.20;;;;;;5089336;27;46733;-69
2022/11/19 01:30:13;;;;;;;10.30;5.53;;;5.40;75.70;;;;;;5089770;27;46436;-70
2022/11/19 01:32:39;;;;;;;25.87;6.43;;;5.60;75.10;;;;;;5082582;27;45857;-70
2022/11/19 01:35:05;;;;;;;16.33;6.27;;;5.70;73.20;;;;;;5086567;27;46585;-69
2022/11/19 01:37:31;;;;;;;10.63;6.20;;;5.80;74.40;;;;;;5089671;27;46702;-68
2022/11/19 01:39:56;;;;;;;12.37;5.70;;;5.90;74.40;;;;;;5082275;27;46388;-69
2022/11/19 01:45:32;;;;;;;13.13;5.30;;;6.00;74.50;;;;;;5085033;27;46520;-69
2022/11/19 01:48:03;;;;;;;10.10;6.17;;;5.90;74.40;;;;;;5085978;27;46617;-68
2022/11/19 01:50:33;;;;;;;12.33;5.97;;;5.80;74.30;;;;;;5084688;27;46500;-69
2022/11/19 01:52:59;;;;;;;10.13;6.07;;;5.50;74.50;;;;;;5081964;27;46794;-69
2022/11/19 01:55:26;;;;;;;9.30;5.60;;;5.50;75.50;;;;;;5086879;27;46480;-68
2022/11/19 01:57:57;;;;;;;8.50;5.67;;;5.30;76.00;;;;;;5083758;27;47750;-69
2022/11/19 02:00:23;;;;;;;9.10;5.10;;;5.20;76.50;;;;;;5088560;27;46434;-70
2022/11/19 02:02:49;;;;;;;8.93;5.17;;;5.00;75.80;;;;;;5082204;27;46143;-68
2022/11/19 02:05:15;;;;;;;7.67;5.40;;;5.00;77.00;;;;;;5083675;27;46777;-69
2022/11/19 02:07:46;;;;;;;10.73;5.87;;;4.90;76.90;;;;;;5087962;27;46736;-69
2022/11/19 02:10:11;;;;;;;11.63;5.77;;;4.90;77.10;;;;;;5086140;27;46744;-69
2022/11/19 02:12:58;;;;;;;10.40;5.37;;;4.80;77.20;;;;;;5086440;27;46504;-70
2022/11/19 02:15:39;;;;;;;8.47;4.50;;;4.60;76.10;;;;;;5084917;27;46406;-68
2022/11/19 02:18:13;;;;;;;8.67;4.80;;;4.60;77.20;;;;;;5083423;27;46839;-69
2022/11/19 02:20:51;;;;;;;12.80;5.30;;;4.50;77.00;;;;;;5083964;27;46667;-68
2022/11/19 02:23:35;;;;;;;9.73;5.23;;;4.50;75.60;;;;;;5084242;27;46318;-69
2022/11/19 02:26:22;;;;;;;8.07;5.60;;;4.50;76.60;;;;;;5084276;27;46442;-71
2022/11/19 02:29:06;;;;;;;10.53;5.07;;;4.60;76.10;;;;;;5086445;27;47218;-69
2022/11/19 02:31:47;;;;;;;8.90;5.60;;;4.60;76.00;;;;;;5084553;27;46366;-69
2022/11/19 02:34:28;;;;;;;9.73;4.97;;;4.60;75.00;;;;;;5087971;27;46534;-72
2022/11/19 02:37:14;;;;;;;14.07;5.40;;;4.60;76.00;;;;;;5089517;27;46432;-70
2022/11/19 02:39:45;;;;;;;11.80;5.30;;;4.70;75.70;;;;;;5087708;27;46702;-68
2022/11/19 02:42:27;;;;;;;8.68;5.05;;;4.90;75.50;;;;;;5085375;27;45728;-70
2022/11/19 02:44:58;;;;;;;13.37;5.13;;;4.90;73.80;;;;;;5085822;27;46707;-69
2022/11/19 02:47:29;;;;;;;7.27;4.67;;;5.10;74.50;;;;;;5088599;27;46484;-67
2022/11/19 02:50:02;;;;;;;10.67;4.93;;;5.30;73.90;;;;;;5088741;27;46474;-68
2022/11/19 02:52:29;;;;;;;10.20;5.10;;;5.50;73.00;;;;;;5092090;27;46518;-70
2022/11/19 02:54:55;;;;;;;7.63;5.03;;;5.50;73.00;;;;;;5089287;27;46424;-68
2022/11/19 02:57:21;;;;;;;7.10;4.60;;;5.60;74.20;;;;;;5093829;27;46392;-70
2022/11/19 03:06:08;;;;;;;7.80;3.23;;;5.80;74.30;;;;;;5087789;27;46499;-69
2022/11/19 03:08:34;;;;;;;3.77;2.47;;;5.80;74.30;;;;;;5088100;27;46450;-69
2022/11/19 03:11:08;;;;;;;5.00;3.17;;;5.90;74.20;;;;;;5088203;27;47893;-67
2022/11/19 03:17:09;;;;;;;4.23;2.63;;;5.90;74.50;;;;;;5080547;27;46726;-69
2022/11/19 03:19:45;;;;;;;4.57;2.87;;;6.00;74.20;;;;;;5090611;27;46380;-68
2022/11/19 03:22:36;;;;;;;6.13;2.80;;;6.10;74.20;;;;;;5088621;27;46412;-68
2022/11/19 03:25:05;;;;;;;5.73;2.37;;;6.10;72.90;;;;;;5086332;27;46460;-70
2022/11/19 03:27:37;;;;;;;8.23;3.13;;;6.10;74.30;;;;;;5086806;27;46381;-67
2022/11/19 03:30:04;;;;;;;4.63;2.90;;;6.20;74.10;;;;;;5083905;27;46290;-67
2022/11/19 03:33:12;;;;;;;2.93;2.27;;;6.20;73.40;;;;;;5086720;27;46484;-67
2022/11/19 03:35:48;;;;;;;3.70;2.57;;;6.20;74.40;;;;;;5081660;27;46424;-69
2022/11/19 03:38:22;;;;;;;4.23;2.40;;;6.30;74.20;;;;;;5087739;27;46734;-69
2022/11/19 03:40:49;;;;;;;7.93;2.73;;;6.30;74.10;;;;;;5085959;27;46964;-67
2022/11/19 03:43:19;;;;;;;4.57;2.60;;;6.30;74.30;;;;;;5084015;27;46380;-68
2022/11/19 03:45:47;;;;;;;9.53;2.77;;;6.30;73.20;;;;;;5088195;27;46747;-68
2022/11/19 03:48:17;;;;;;;3.93;2.40;;;6.30;74.40;;;;;;5085387;27;46442;-69
2022/11/19 03:51:06;;;;;;;4.83;3.00;;;6.40;74.50;;;;;;5087994;27;46086;-67
2022/11/19 03:53:32;;;;;;;4.07;2.90;;;6.40;73.10;;;;;;5083069;27;46605;-69
2022/11/19 03:56:02;;;;;;;3.93;2.63;;;6.40;74.00;;;;;;5090181;27;46438;-69
2022/11/19 03:58:28;;;;;;;3.00;2.20;;;6.50;73.90;;;;;;5082573;27;46451;-67
2022/11/19 04:00:54;;;;;;;4.97;2.70;;;6.50;73.80;;;;;;5086680;27;46663;-69
2022/11/19 04:03:20;;;;;;;4.40;2.73;;;6.60;72.50;;;;;;5089751;27;46531;-69
2022/11/19 04:05:46;;;;;;;5.07;2.33;;;6.60;73.50;;;;;;5088902;27;46356;-68
2022/11/19 04:08:11;;;;;;;3.60;2.37;;;6.60;73.50;;;;;;5090030;27;46376;-68
2022/11/19 04:10:37;;;;;;;9.27;3.20;;;6.70;73.60;;;;;;5083608;27;46925;-68
2022/11/19 04:13:03;;;;;;;6.83;3.10;;;6.70;72.50;;;;;;5088100;27;46448;-67
2022/11/19 04:15:28;;;;;;;6.37;3.07;;;6.80;73.50;;;;;;5086160;27;46555;-69
2022/11/19 04:17:54;;;;;;;6.20;3.20;;;6.80;73.50;;;;;;5088202;27;46429;-66
2022/11/19 04:20:19;;;;;;;6.07;3.60;;;6.80;73.80;;;;;;5087186;27;46894;-67
2022/11/19 04:22:45;;;;;;;4.27;2.50;;;6.80;72.80;;;;;;5087282;27;46506;-67
2022/11/19 04:25:11;;;;;;;4.50;3.20;;;6.70;73.60;;;;;;5084233;27;45944;-69
2022/11/19 04:27:36;;;;;;;4.77;3.33;;;6.80;73.70;;;;;;5088887;27;46424;-66
2022/11/19 04:30:03;;;;;;;3.93;2.67;;;6.80;73.90;;;;;;5086359;27;46365;-69
2022/11/19 04:32:29;;;;;;;8.50;3.43;;;6.80;74.00;;;;;;5085663;27;47416;-67
2022/11/19 04:34:54;;;;;;;3.97;2.77;;;6.80;72.80;;;;;;5085599;27;46559;-69
2022/11/19 04:37:20;;;;;;;4.43;3.13;;;6.80;73.80;;;;;;5084442;27;46697;-67
2022/11/19 04:39:45;;;;;;;4.87;3.10;;;6.90;73.80;;;;;;5090360;27;45874;-67
2022/11/19 04:42:11;;;;;;;4.33;2.70;;;6.80;73.80;;;;;;5087707;27;47375;-68
2022/11/19 04:44:36;;;;;;;4.40;2.80;;;6.80;73.00;;;;;;5085703;27;46451;-69
2022/11/19 04:47:02;;;;;;;4.47;2.80;;;6.70;74.20;;;;;;5086571;27;46384;-67
2022/11/19 04:49:28;;;;;;;5.00;3.07;;;6.70;74.40;;;;;;5088065;27;46565;-67
2022/11/19 04:51:53;;;;;;;12.73;3.37;;;6.70;74.40;;;;;;5085165;27;46169;-69
2022/11/19 04:54:19;;;;;;;5.13;3.30;;;6.70;73.50;;;;;;5085961;27;46512;-68
2022/11/19 04:56:44;;;;;;;7.00;3.50;;;6.80;74.50;;;;;;5081154;27;46331;-67
2022/11/19 04:59:10;;;;;;;6.50;3.50;;;6.80;74.40;;;;;;5088103;27;46425;-69
2022/11/19 05:01:35;;;;;;;8.93;3.50;;;6.80;74.30;;;;;;5087329;27;46617;-69
2022/11/19 05:04:01;;;;;;;4.37;2.90;;;6.80;73.50;;;;;;5082408;27;46399;-67
2022/11/19 05:06:27;;;;;;;5.40;3.10;;;6.80;74.70;;;;;;5086940;27;46330;-68
2022/11/19 05:08:52;;;;;;;6.20;3.37;;;6.70;74.70;;;;;;5084620;27;46230;-67
2022/11/19 05:11:18;;;;;;;6.40;3.00;;;6.80;74.70;;;;;;5085546;27;47275;-68
2022/11/19 05:13:43;;;;;;;5.77;3.17;;;6.70;73.70;;;;;;5082367;27;46116;-68
2022/11/19 05:16:09;;;;;;;5.57;3.10;;;6.80;74.70;;;;;;5082879;27;46476;-69
2022/11/19 05:18:35;;;;;;;5.70;3.17;;;6.70;74.90;;;;;;5086077;27;46386;-68
2022/11/19 05:21:00;;;;;;;4.20;2.93;;;6.70;75.10;;;;;;5085762;27;46798;-67
2022/11/19 05:23:26;;;;;;;5.30;3.00;;;6.70;75.20;;;;;;5085978;27;46168;-67
2022/11/19 05:25:51;;;;;;;7.13;3.40;;;6.60;75.10;;;;;;5084572;27;46464;-69
2022/11/19 05:28:17;;;;;;;7.37;3.00;;;6.60;75.00;;;;;;5084023;27;45907;-68
2022/11/19 05:30:43;;;;;;;10.00;3.90;;;6.60;75.10;;;;;;5083359;27;46549;-68
2022/11/19 05:33:08;;;;;;;6.00;3.00;;;6.60;74.00;;;;;;5084535;27;46426;-68
2022/11/19 05:35:34;;;;;;;6.10;2.90;;;6.60;76.20;;;;;;5076886;27;46499;-68
2022/11/19 05:38:00;;;;;;;7.20;3.33;;;6.60;75.10;;;;;;5087093;27;46768;-68
2022/11/19 05:40:26;;;;;;;318.33;152.07;;;6.60;75.00;;;;;;5084442;27;46640;-69
2022/11/19 05:42:51;;;;;;;17.40;9.30;;;6.60;75.10;;;;;;5089126;27;46597;-69
2022/11/19 05:45:17;;;;;;;4.40;2.90;;;6.70;75.20;;;;;;5086789;27;46403;-69
2022/11/19 05:47:43;;;;;;;10.20;5.30;;;6.70;75.10;;;;;;5083594;27;46470;-70
2022/11/19 05:50:09;;;;;;;9.07;5.40;;;6.70;75.20;;;;;;5085702;27;46480;-72
2022/11/19 05:52:35;;;;;;;10.83;5.20;;;6.70;75.20;;;;;;5085008;27;47037;-72
2022/11/19 05:55:01;;;;;;;9.33;4.43;;;6.70;74.10;;;;;;5084066;27;46434;-70
2022/11/19 05:57:26;;;;;;;5.53;3.23;;;6.60;75.10;;;;;;5085805;27;46376;-69
2022/11/19 05:59:52;;;;;;;5.37;3.20;;;6.50;75.00;;;;;;5083839;27;46370;-69
2022/11/19 06:02:17;;;;;;;6.03;4.07;;;6.50;74.90;;;;;;5084557;27;46391;-70
2022/11/19 06:04:43;;;;;;;5.87;3.97;;;6.40;73.80;;;;;;5081470;27;46319;-71
2022/11/19 06:07:09;;;;;;;7.63;4.10;;;6.40;74.90;;;;;;5091049;27;46422;-71
2022/11/19 06:09:34;;;;;;;4.13;2.70;;;6.30;74.80;;;;;;5089332;27;47681;-69
2022/11/19 06:12:00;;;;;;;10.00;4.60;;;6.30;74.80;;;;;;5088452;27;46415;-69
2022/11/19 06:14:26;;;;;;;4.63;3.03;;;6.30;75.30;;;;;;5090841;27;46539;-69
2022/11/19 06:16:57;;;;;;;6.47;2.83;;;6.30;75.40;;;;;;5088959;27;46499;-71
2022/11/19 06:19:23;;;;;;;10.00;3.17;;;6.30;75.10;;;;;;5089703;27;47476;-71
2022/11/19 06:21:50;;;;;;;14.80;5.40;;;6.40;74.80;;;;;;5093132;27;46455;-71
2022/11/19 06:24:16;;;;;;;5.53;3.67;;;6.40;73.90;;;;;;5089790;27;46756;-69
2022/11/19 06:26:42;;;;;;;5.23;3.27;;;6.50;75.00;;;;;;5089839;27;46423;-71
2022/11/19 06:29:09;;;;;;;9.70;5.60;;;6.40;74.80;;;;;;5085474;27;46526;-70
2022/11/19 06:31:35;;;;;;;8.17;4.40;;;6.40;74.90;;;;;;5086091;27;46409;-68
2022/11/19 06:34:00;;;;;;;8.47;4.60;;;6.40;73.80;;;;;;5089268;27;46747;-69
2022/11/19 06:36:26;;;;;;;6.43;4.27;;;6.40;74.90;;;;;;5089879;27;47202;-70
2022/11/19 06:38:52;;;;;;;6.20;4.20;;;6.50;75.00;;;;;;5090434;27;46608;-69
2022/11/19 06:41:18;;;;;;;6.03;3.70;;;6.60;75.00;;;;;;5090114;27;46487;-71
2022/11/19 06:43:44;;;;;;;9.17;5.07;;;6.60;74.00;;;;;;5086993;27;46508;-69
2022/11/19 06:46:10;;;;;;;6.93;3.27;;;6.60;75.10;;;;;;5085957;27;46720;-68
2022/11/19 06:48:36;;;;;;;3.73;2.80;;;6.70;75.10;;;;;;5086328;27;47986;-71
2022/11/19 06:51:03;;;;;;;3.17;2.33;;;6.70;75.20;;;;;;5088485;27;46415;-69
2022/11/19 06:53:29;;;;;;;9.30;4.40;;;6.80;74.10;;;;;;5089119;27;46298;-69
2022/11/19 06:56:00;;;;;;;9.17;3.97;;;6.80;74.90;;;;;;5082838;27;46404;-70
2022/11/19 06:58:26;;;;;;;7.87;3.13;;;6.90;74.40;;;;;;5093406;27;46651;-71
2022/11/19 07:00:52;;;;;;;8.73;3.03;;;7.00;74.30;;;;;;5086555;27;46737;-70
2022/11/19 07:03:18;;;;;;;5.13;3.20;;;7.00;74.30;;;;;;5088001;27;46381;-69
2022/11/19 07:05:45;;;;;;;6.80;3.00;;;7.10;74.10;;;;;;5084217;27;46362;-69
2022/11/19 07:08:11;;;;;;;4.67;3.10;;;7.10;74.00;;;;;;5084947;27;46574;-69
2022/11/19 07:10:36;;;;;;;4.37;2.50;;;7.10;73.90;;;;;;5092287;27;46340;-68
2022/11/19 07:13:02;;;;;;;4.23;2.20;;;7.30;73.00;;;;;;5085430;27;46762;-70
2022/11/19 07:15:28;;;;;;;25.97;11.67;;;7.30;74.00;;;;;;5082664;27;46540;-71
2022/11/19 07:17:53;;;;;;;10.47;6.00;;;7.40;74.00;;;;;;5085702;27;46666;-70
2022/11/19 07:20:19;;;;;;;4.43;3.27;;;7.50;73.60;;;;;;5088979;27;46450;-71
2022/11/19 07:22:45;;;;;;;4.13;2.87;;;;;;;;;;5086118;27;46404;-69
2022/11/19 07:25:11;;;;;;;4.20;2.63;;;7.70;72.10;;;;;;5088533;27;45950;-69
2022/11/19 07:27:37;;;;;;;4.80;3.00;;;7.80;72.90;;;;;;5084152;27;47440;-67
2022/11/19 07:30:05;;;;;;;3.90;2.87;;;7.90;72.70;;;;;;5087221;27;46404;-70
2022/11/19 07:32:31;;;;;;;7.70;3.40;;;8.10;72.60;;;;;;5084516;27;46737;-70
2022/11/19 07:34:56;;;;;;;3.97;2.77;;;8.10;71.40;;;;;;5086457;27;46516;-69
2022/11/19 07:37:22;;;;;;;7.20;2.97;;;8.10;71.60;;;;;;5088552;27;47603;-69
2022/11/19 07:39:48;;;;;;;3.43;2.27;;;8.10;72.90;;;;;;5066041;27;46609;-68
2022/11/19 07:44:58;;;;;;;5.60;2.17;;;8.10;72.20;;;;;;5086879;27;45873;-70
2022/11/19 07:47:23;;;;;;;7.90;2.43;;;8.10;73.30;;;;;;5086122;27;46277;-72
2022/11/19 07:49:49;;;;;;;3.90;2.33;;;8.00;74.40;;;;;;5086427;27;46513;-70
2022/11/19 07:52:15;;;;;;;4.33;2.40;;;8.10;73.30;;;;;;5081616;27;46394;-70
2022/11/19 07:54:40;;;;;;;4.17;2.63;;;8.10;72.20;;;;;;5082934;27;46432;-70
2022/11/19 07:57:06;;;;;;;4.43;2.80;;;8.20;73.20;;;;;;5084926;27;46708;-70
2022/11/19 07:59:32;;;;;;;4.67;2.57;;;8.30;73.00;;;;;;5087259;27;46347;-69
2022/11/19 08:01:57;;;;;;;4.33;2.80;;;8.40;72.90;;;;;;5084620;27;46461;-69
2022/11/19 08:04:23;;;;;;;4.73;2.83;;;8.50;71.60;;;;;;5085439;27;46721;-68
2022/11/19 08:06:48;;;;;;;2.50;2.20;;;8.50;72.80;;;;;;5086056;27;46690;-68
2022/11/19 08:09:14;;;;;;;4.50;2.90;;;8.60;72.70;;;;;;5087004;27;46671;-71
2022/11/19 08:11:40;;;;;;;5.57;2.80;;;8.60;72.60;;;;;;5083774;27;46281;-69
2022/11/19 08:14:06;;;;;;;4.90;2.60;;;8.80;71.40;;;;;;5087760;27;46577;-69
2022/11/19 08:19:17;;;;;;;3.90;3.03;;;8.90;72.10;;;;;;5084951;27;46508;-69
2022/11/19 08:21:45;;;;;;;5.33;3.30;;;9.00;72.00;;;;;;5085523;27;46665;-68
2022/11/19 08:24:13;;;;;;;5.10;2.50;;;9.00;71.00;;;;;;5083459;27;46391;-69
2022/11/19 08:26:39;;;;;;;8.70;2.70;;;9.10;71.90;;;;;;5085538;27;46922;-71
2022/11/19 08:29:06;;;;;;;4.27;2.77;;;9.30;71.60;;;;;;5087282;27;46342;-69
2022/11/19 08:31:32;;;;;;;4.13;2.97;;;9.50;71.50;;;;;;5082557;27;46482;-70
2022/11/19 08:33:59;;;;;;;3.90;2.70;;;9.70;70.10;;;;;;5083475;27;45838;-69
2022/11/19 08:36:24;;;;;;;3.50;2.97;;;9.80;71.10;;;;;;5082238;27;47080;-69
2022/11/19 08:38:50;;;;;;;5.63;2.80;;;10.00;69.60;;;;;;5087972;27;46501;-70
2022/11/19 08:44:00;;;;;;;4.83;2.67;;;10.20;68.70;;;;;;5087136;27;46371;-68
2022/11/19 08:46:26;;;;;;;4.03;2.17;;;10.30;68.80;;;;;;5091154;27;46866;-69
2022/11/19 08:48:52;;;;;;;3.37;2.37;;;10.50;68.40;;;;;;5084254;27;46808;-70
2022/11/19 08:51:17;;;;;;;3.50;2.57;;;10.60;69.10;;;;;;5081658;27;46419;-72
2022/11/19 08:53:43;;;;;;;8.40;2.80;;;10.90;66.00;;;;;;5086541;27;46397;-69
2022/11/19 08:56:09;;;;;;;8.43;2.77;;;11.00;67.00;;;;;;5087227;27;46516;-70
2022/11/19 08:58:34;;;;;;;3.20;2.37;;;10.90;67.00;;;;;;5087229;27;46384;-69
2022/11/19 09:01:10;;;;;;;4.67;2.00;;;10.80;67.40;;;;;;5086329;27;46500;-69
2022/11/19 09:03:37;;;;;;;3.43;2.13;;;10.80;66.00;;;;;;5081823;27;46833;-68
2022/11/19 09:06:03;;;;;;;4.00;2.00;;;10.80;67.10;;;;;;5084308;27;46772;-68
2022/11/19 09:08:29;;;;;;;4.30;2.03;;;10.70;67.30;;;;;;5087718;27;46403;-65
2022/11/19 09:10:55;;;;;;;5.43;2.80;;;10.70;67.50;;;;;;5088696;27;45882;-67
2022/11/19 09:13:21;;;;;;;3.33;2.13;;;10.50;66.40;;;;;;5086635;27;47345;-67
2022/11/19 09:15:50;;;;;;;3.67;2.30;;;10.50;67.60;;;;;;5081793;27;48188;-67
2022/11/19 09:18:16;;;;;;;4.03;2.20;;;10.80;66.80;;;;;;5081781;27;46376;-68
2022/11/19 09:20:42;;;;;;;4.20;2.53;;;11.00;66.10;;;;;;5085017;27;46430;-67
2022/11/19 09:23:08;;;;;;;3.83;2.00;;;11.20;64.50;;;;;;5082930;27;46466;-68
2022/11/19 09:25:34;;;;;;;3.53;1.70;;;11.20;64.50;;;;;;5083288;27;46627;-68
2022/11/19 09:28:00;;;;;;;4.73;2.60;;;11.10;65.50;;;;;;5083681;27;46392;-67
2022/11/19 09:30:25;;;;;;;2.40;1.53;;;11.10;65.40;;;;;;5085901;27;46588;-68
2022/11/19 09:32:51;;;;;;;2.63;1.70;;;10.80;63.00;;;;;;5081512;27;46408;-67
2022/11/19 09:35:17;;;;;;;3.13;1.70;;;10.80;64.00;;;;;;5082712;27;47308;-69
2022/11/19 09:37:42;;;;;;;5.00;1.90;;;10.70;65.10;;;;;;5082131;27;46653;-70
2022/11/19 09:40:16;;;;;;;3.77;2.20;;;10.30;63.50;;;;;;5089923;27;46423;-70
2022/11/19 09:43:33;;;;;;;3.97;2.00;;;10.20;64.60;;;;;;5084036;27;46608;-65
2022/11/19 09:46:02;;;;;;;3.00;1.87;;;10.30;64.80;;;;;;5040512;28;46772;-70
2022/11/19 09:48:34;;;;;;;4.17;2.10;;;9.90;64.50;;;;;;5042093;28;46502;-71
2022/11/19 09:51:13;;;;;;;9.90;2.80;;;10.20;64.00;;;;;;5065031;27;46500;-69
2022/11/19 09:53:47;;;;;;;2.50;1.70;;;10.00;63.30;;;;;;5077200;27;46547;-68
2022/11/19 09:56:28;;;;;;;2.47;1.30;;;9.80;64.90;;;;;;5084093;27;46636;-66
2022/11/19 09:58:56;;;;;;;5.80;1.97;;;9.50;65.00;;;;;;5086279;27;46429;-67
2022/11/19 10:01:22;;;;;;;3.17;2.10;;;9.40;65.70;;;;;;5087558;27;46534;-67
2022/11/19 10:03:49;;;;;;;2.23;1.80;;;9.60;64.00;;;;;;5083372;27;46649;-69
2022/11/19 10:06:24;;;;;;;4.23;2.10;;;9.70;65.20;;;;;;5082489;27;46415;-68
2022/11/19 10:09:09;;;;;;;3.80;2.30;;;9.90;65.20;;;;;;5082856;27;45836;-69
2022/11/19 10:11:47;;;;;;;3.43;2.43;;;10.10;63.10;;;;;;5084891;27;46386;-68
2022/11/19 10:14:43;;;;;;;3.50;1.90;;;10.30;62.10;;;;;;5079249;27;46644;-67
2022/11/19 10:17:24;;;;;;;3.60;2.17;;;10.30;62.60;;;;;;5083860;27;46364;-66
2022/11/19 10:19:58;;;;;;;2.93;1.87;;;10.20;62.70;;;;;;5084312;27;46530;-65
2022/11/19 10:22:47;;;;;;;3.80;1.83;;;10.10;62.70;;;;;;5083258;27;46370;-67
2022/11/19 10:25:15;;;;;;;2.80;1.87;;;9.70;62.90;;;;;;5072176;27;46409;-67
2022/11/19 10:27:55;;;;;;;4.17;1.87;;;9.50;64.60;;;;;;5083155;27;46513;-67
2022/11/19 10:30:25;;;;;;;3.20;1.97;;;9.30;64.80;;;;;;5081983;27;46364;-65
2022/11/19 10:33:13;;;;;;;5.53;1.80;;;9.40;63.90;;;;;;5086925;27;45865;-68
2022/11/19 10:35:45;;;;;;;2.90;1.87;;;9.40;65.00;;;;;;5090057;27;47370;-67
2022/11/19 10:38:24;;;;;;;3.00;1.90;;;9.40;64.90;;;;;;5089671;27;47643;-69
2022/11/19 10:40:59;;;;;;;2.53;1.30;;;9.40;64.90;;;;;;5088059;27;46501;-67
2022/11/19 10:43:34;;;;;;;4.43;1.70;;;9.20;63.30;;;;;;5083197;27;46422;-68
2022/11/19 10:46:02;;;;;;;2.63;1.70;;;9.30;64.50;;;;;;5085566;27;46630;-67
2022/11/19 10:48:38;;;;;;;2.53;1.67;;;9.30;64.10;;;;;;5077689;27;46498;-68
2022/11/19 10:51:12;;;;;;;4.30;2.60;;;9.50;64.00;;;;;;5085064;27;46667;-66
2022/11/19 10:53:40;;;;;;;3.00;1.47;;;9.50;63.50;;;;;;5085765;27;46452;-68
2022/11/19 10:56:23;;;;;;;2.83;1.50;;;9.50;63.70;;;;;;5088160;27;46393;-69
2022/11/19 10:59:00;;;;;;;3.83;1.37;;;9.60;63.40;;;;;;5086319;27;48153;-67
2022/11/19 11:01:32;;;;;;;2.03;1.30;;;9.80;63.10;;;;;;5089210;27;46926;-68
2022/11/19 11:04:24;;;;;;;3.73;1.63;;;9.90;61.80;;;;;;5084229;27;46509;-70
2022/11/19 11:06:53;;;;;;;7.00;2.20;;;10.00;61.60;;;;;;5088851;27;45911;-68
2022/11/19 11:09:36;;;;;;;3.80;1.37;;;10.10;61.10;;;;;;5088335;27;46618;-67
2022/11/19 11:15:06;;;;;;;4.40;1.47;;;10.10;60.10;;;;;;5081406;27;46557;-69
2022/11/19 11:17:35;;;;;;;2.63;1.30;;;10.10;60.50;;;;;;5090113;27;46403;-67
2022/11/19 11:20:15;;;;;;;2.60;1.43;;;9.70;60.90;;;;;;5088238;27;47192;-68
2022/11/19 11:22:42;;;;;;;3.40;1.13;;;9.70;61.80;;;;;;5088237;27;46368;-68
2022/11/19 11:25:27;;;;;;;3.20;1.37;;;9.50;60.40;;;;;;5084984;27;46402;-69
2022/11/19 11:28:12;;;;;;;3.30;1.50;;;9.50;61.50;;;;;;5089537;27;46278;-67
2022/11/19 11:30:53;;;;;;;2.77;1.30;;;9.70;61.60;;;;;;5083903;27;46940;-68
2022/11/19 11:33:31;;;;;;;3.50;1.30;;;9.70;60.10;;;;;;5086206;27;46437;-67
2022/11/19 11:36:04;;;;;;;2.03;1.23;;;9.70;61.10;;;;;;5083229;27;46438;-69
2022/11/19 11:38:30;;;;;;;1.87;1.00;;;9.80;60.90;;;;;;5085039;27;46619;-67
2022/11/19 11:41:05;;;;;;;6.50;1.30;;;10.10;59.90;;;;;;5088450;27;46555;-67
2022/11/19 11:43:33;;;;;;;3.20;1.63;;;10.30;59.30;;;;;;5086112;27;46510;-68
2022/11/19 11:46:01;;;;;;;3.83;1.60;;;10.40;58.30;;;;;;5084150;27;46471;-67
2022/11/19 11:48:35;;;;;;;2.60;1.30;;;10.20;58.80;;;;;;5080423;27;46436;-68
2022/11/19 11:51:00;;;;;;;2.10;1.27;;;10.20;59.00;;;;;;5083379;27;46471;-67
2022/11/19 11:53:32;;;;;;;3.13;1.40;;;9.90;59.00;;;;;;5086607;27;46471;-66
2022/11/19 11:56:00;;;;;;;2.60;1.20;;;9.80;60.00;;;;;;5085032;27;46893;-69
2022/11/19 11:58:31;;;;;;;5.03;1.33;;;9.70;60.10;;;;;;5082491;27;46433;-67
2022/11/19 12:01:29;;;;;;;2.57;1.47;;;9.70;60.00;;;;;;5083336;27;46659;-67
2022/11/19 12:03:57;;;;;;;2.73;1.10;;;9.60;60.30;;;;;;5061656;27;46516;-66
2022/11/19 12:06:27;;;;;;;2.20;1.20;;;9.60;61.70;;;;;;5085969;27;46512;-68
2022/11/19 12:09:23;;;;;;;2.10;1.30;;;9.70;62.20;;;;;;5087984;27;45908;-67
2022/11/19 12:11:57;;;;;;;3.03;1.13;;;9.90;62.10;;;;;;5086401;27;47274;-68
2022/11/19 12:14:53;;;;;;;3.50;1.53;;;10.10;61.00;;;;;;5088596;27;46326;-67
2022/11/19 12:17:33;;;;;;;4.07;1.40;;;10.30;61.00;;;;;;5087189;27;45850;-68
2022/11/19 12:20:19;;;;;;;2.83;1.60;;;10.30;61.00;;;;;;5083986;27;46822;-68
2022/11/19 12:23:00;;;;;;;7.93;1.67;;;10.30;60.90;;;;;;5085191;27;46377;-67
2022/11/19 12:25:36;;;;;;;3.67;1.67;;;10.20;60.70;;;;;;5081714;27;46473;-69
2022/11/19 12:28:11;;;;;;;124.03;68.90;;;10.10;61.10;;;;;;5083993;27;46523;-69
2022/11/19 12:31:10;;;;;;;6.13;2.17;;;10.00;61.10;;;;;;5089236;27;46432;-67
2022/11/19 12:34:00;;;;;;;3.33;1.43;;;9.90;62.10;;;;;;5088189;27;47680;-67
2022/11/19 12:36:55;;;;;;;3.10;1.50;;;9.90;62.10;;;;;;5082307;27;46806;-68
2022/11/19 12:39:48;;;;;;;2.33;1.23;;;9.70;61.80;;;;;;5087250;27;46010;-68
2022/11/19 12:42:39;;;;;;;2.40;1.30;;;9.40;62.10;;;;;;5083216;27;46330;-67
2022/11/19 12:45:23;;;;;;;4.23;1.50;;;9.20;61.30;;;;;;5091542;27;47573;-67
2022/11/19 12:48:00;;;;;;;3.30;1.20;;;9.30;62.40;;;;;;5080151;27;46472;-67
2022/11/19 12:50:51;;;;;;;3.17;1.10;;;9.30;62.10;;;;;;5087257;27;46408;-67
2022/11/19 12:53:23;;;;;;;4.40;1.13;;;9.60;60.50;;;;;;5081447;27;46392;-66
2022/11/19 12:56:09;;;;;;;3.23;1.47;;;9.60;61.40;;;;;;5087860;27;47092;-67
2022/11/19 12:59:09;;;;;;;4.00;1.33;;;9.70;61.10;;;;;;5083718;27;46605;-67
2022/11/19 13:01:40;;;;;;;4.30;1.20;;;9.70;60.90;;;;;;5087813;27;45887;-67
2022/11/19 13:04:43;;;;;;;3.00;1.30;;;9.80;60.50;;;;;;5090075;27;46491;-67
2022/11/19 13:07:17;;;;;;;2.50;1.00;;;9.70;60.00;;;;;;5080343;27;46547;-70
2022/11/19 13:09:47;;;;;;;4.73;1.40;;;9.70;59.60;;;;;;5080489;27;46405;-68
2022/11/19 13:12:24;;;;;;;5.97;3.50;;;9.70;59.20;;;;;;5082372;27;46451;-68
2022/11/19 13:14:57;;;;;;;15.47;4.30;;;9.90;58.00;;;;;;5087810;27;45864;-67
2022/11/19 13:17:39;;;;;;;14.57;5.20;;;9.90;58.80;;;;;;5086578;27;46708;-69
2022/11/19 13:20:11;;;;;;;15.40;4.20;;;9.80;59.10;;;;;;5082743;27;46493;-69
2022/11/19 13:22:41;;;;;;;4.27;2.10;;;9.70;59.40;;;;;;5085033;27;46332;-68
2022/11/19 13:25:33;;;;;;;12.40;3.07;;;9.50;58.40;;;;;;5088088;27;46366;-67
2022/11/19 13:28:02;;;;;;;13.57;3.80;;;9.40;59.30;;;;;;5089024;27;46607;-69
2022/11/19 13:30:30;;;;;;;2.77;1.30;;;9.20;58.40;;;;;;5085351;27;46486;-68
2022/11/19 13:33:05;;;;;;;4.30;1.53;;;9.10;56.10;;;;;;5082595;27;46709;-69
2022/11/19 13:36:02;;;;;;;4.57;1.87;;;9.10;57.00;;;;;;5086606;27;46513;-67
2022/11/19 13:38:55;;;;;;;4.90;1.80;;;9.20;56.70;;;;;;5086424;27;46643;-69
2022/11/19 13:41:32;;;;;;;2.97;1.60;;;9.30;56.80;;;;;;5113209;27;45993;-69